Time;durP1;ratioP1;P1;durP2;ratioP2;P2;SDS_P1;SDS_P2;PMS_P1;PMS_P2;Temp;Humidity;BMP_temperature;BMP_pressure;BME280_temperature;BME280_humidity;BME280_pressure;Samples;Min_cycle;Max_cycle;Signal;HPM_P1;HPM_P2
2022/03/17 00:00:13;;;;;;;11.13;10.00;;;13.40;99.90;;;;;;5045431;28;20257;-76
2022/03/17 00:02:40;;;;;;;11.32;10.13;;;13.40;99.90;;;;;;5061334;28;20178;-78
2022/03/17 00:05:10;;;;;;;12.38;11.07;;;13.40;99.90;;;;;;5053089;28;20177;-78
2022/03/17 00:07:43;;;;;;;11.85;10.65;;;13.40;99.90;;;;;;5057656;28;20197;-80
2022/03/17 00:10:16;;;;;;;12.82;10.65;;;13.40;99.90;;;;;;5053705;28;20180;-79
2022/03/17 00:12:48;;;;;;;12.95;11.55;;;13.40;99.90;;;;;;5053586;28;20208;-76
2022/03/17 00:15:15;;;;;;;12.63;11.32;;;13.40;99.90;;;;;;5058559;28;20166;-81
2022/03/17 00:17:41;;;;;;;12.18;10.88;;;13.30;99.90;;;;;;5040816;28;20184;-81
2022/03/17 00:20:10;;;;;;;12.70;11.27;;;13.30;99.90;;;;;;5057363;28;20197;-80
2022/03/17 00:22:39;;;;;;;14.05;11.60;;;13.40;99.90;;;;;;5049107;28;20197;-78
2022/03/17 00:25:08;;;;;;;12.75;11.48;;;13.30;99.90;;;;;;5051739;28;20177;-73
2022/03/17 00:27:34;;;;;;;14.38;12.02;;;13.30;99.90;;;;;;5043356;28;20209;-79
2022/03/17 00:30:04;;;;;;;14.35;12.10;;;13.30;99.90;;;;;;5048095;28;20184;-79
2022/03/17 00:32:32;;;;;;;15.43;12.68;;;13.30;99.90;;;;;;5073827;28;20259;-79
2022/03/17 00:37:42;;;;;;;14.63;11.80;;;13.30;99.90;;;;;;5050422;28;20193;-79
2022/03/17 00:40:10;;;;;;;13.27;11.88;;;13.20;99.90;;;;;;5050374;28;20169;-73
2022/03/17 00:42:39;;;;;;;13.95;12.38;;;13.20;99.90;;;;;;5054624;28;20181;-78
2022/03/17 00:45:05;;;;;;;15.02;13.30;;;13.20;99.90;;;;;;5055140;28;20225;-73
2022/03/17 00:47:30;;;;;;;13.68;12.25;;;13.20;99.90;;;;;;5056831;28;20430;-73
2022/03/17 00:49:58;;;;;;;13.65;12.25;;;13.20;99.90;;;;;;5056997;28;20181;-73
2022/03/17 00:52:24;;;;;;;14.50;13.00;;;13.10;99.90;;;;;;5069920;28;20259;-72
2022/03/17 00:54:52;;;;;;;13.63;12.23;;;13.10;99.90;;;;;;5056391;28;20177;-72
2022/03/17 00:57:17;;;;;;;13.02;11.63;;;13.10;99.90;;;;;;5049657;28;20166;-73
2022/03/17 00:59:43;;;;;;;12.88;11.38;;;13.10;99.90;;;;;;5056756;28;20242;-73
2022/03/17 01:02:09;;;;;;;13.02;11.63;;;13.10;99.90;;;;;;5054310;28;20181;-73
2022/03/17 01:04:35;;;;;;;12.82;11.32;;;13.10;99.90;;;;;;5056731;28;20235;-73
2022/03/17 01:07:06;;;;;;;12.65;11.35;;;13.10;99.90;;;;;;5055674;28;20185;-72
2022/03/17 01:09:32;;;;;;;13.48;11.43;;;13.10;99.90;;;;;;5056438;28;20177;-73
2022/03/17 01:12:01;;;;;;;13.20;11.32;;;13.10;99.90;;;;;;5063217;28;20186;-73
2022/03/17 01:14:29;;;;;;;14.55;11.48;;;13.10;99.90;;;;;;5055802;28;20185;-72
2022/03/17 01:16:57;;;;;;;12.88;11.57;;;13.10;99.90;;;;;;5055744;28;20247;-72
2022/03/17 01:19:23;;;;;;;12.25;10.95;;;13.10;99.90;;;;;;5056030;28;20180;-72
2022/03/17 01:21:50;;;;;;;12.18;10.88;;;13.10;99.90;;;;;;5056161;28;20169;-72
2022/03/17 01:24:16;;;;;;;12.93;11.50;;;13.10;99.90;;;;;;5053595;28;20210;-72
2022/03/17 01:26:42;;;;;;;12.80;10.85;;;13.10;99.90;;;;;;5071964;28;20181;-72
2022/03/17 01:29:08;;;;;;;11.77;10.55;;;13.10;99.90;;;;;;5061598;28;20341;-72
2022/03/17 01:31:34;;;;;;;12.45;10.80;;;13.10;99.90;;;;;;5055640;28;20205;-72
2022/03/17 01:34:00;;;;;;;13.25;11.82;;;13.10;99.90;;;;;;5045606;28;20198;-72
2022/03/17 01:36:26;;;;;;;13.27;11.68;;;13.10;99.90;;;;;;5055542;28;20197;-71
2022/03/17 01:38:54;;;;;;;12.43;11.13;;;13.10;99.90;;;;;;5056321;28;20200;-72
2022/03/17 01:41:23;;;;;;;12.73;11.43;;;13.10;99.90;;;;;;5042781;28;20181;-71
2022/03/17 01:43:51;;;;;;;12.50;11.20;;;13.00;99.90;;;;;;5054991;28;20177;-72
2022/03/17 01:46:19;;;;;;;14.10;12.10;;;13.10;99.90;;;;;;5058912;28;20202;-72
2022/03/17 01:48:47;;;;;;;15.30;13.70;;;13.00;99.90;;;;;;5050504;28;20177;-72
2022/03/17 01:51:13;;;;;;;13.95;12.18;;;13.00;99.90;;;;;;5052004;28;20181;-72
2022/03/17 01:53:41;;;;;;;14.13;11.90;;;13.00;99.90;;;;;;5053319;28;20262;-72
2022/03/17 01:56:12;;;;;;;13.70;12.30;;;13.00;99.90;;;;;;5072224;28;20177;-72
2022/03/17 01:58:39;;;;;;;15.50;12.40;;;13.00;99.90;;;;;;5052706;28;20197;-72
2022/03/17 02:01:07;;;;;;;13.05;11.65;;;13.00;99.90;;;;;;5062010;28;20270;-72
2022/03/17 02:03:41;;;;;;;15.10;13.50;;;13.10;99.90;;;;;;5055486;28;20181;-72
2022/03/17 02:06:07;;;;;;;16.00;14.18;;;13.00;99.90;;;;;;5055018;28;20176;-73
2022/03/17 02:08:32;;;;;;;15.20;13.40;;;13.00;99.90;;;;;;5055835;28;20184;-73
2022/03/17 02:13:45;;;;;;;15.27;13.38;;;13.00;99.90;;;;;;5051846;28;20270;-73
2022/03/17 02:16:12;;;;;;;15.13;13.52;;;13.00;99.90;;;;;;5060074;28;20182;-72
2022/03/17 02:18:41;;;;;;;14.35;12.85;;;13.00;99.90;;;;;;5038808;28;20186;-70
2022/03/17 02:21:09;;;;;;;14.02;12.55;;;13.00;99.90;;;;;;5046965;28;20205;-73
2022/03/17 02:26:22;;;;;;;12.57;11.27;;;13.00;99.90;;;;;;5045314;28;20184;-72
2022/03/17 02:28:48;;;;;;;13.75;12.02;;;13.10;99.90;;;;;;5044549;28;20202;-72
2022/03/17 02:31:13;;;;;;;13.43;11.88;;;13.00;99.90;;;;;;5046956;28;20199;-71
2022/03/17 02:33:41;;;;;;;14.43;12.90;;;13.10;99.90;;;;;;5050939;28;20166;-71
2022/03/17 02:36:09;;;;;;;13.93;12.43;;;13.10;99.90;;;;;;5046194;28;20247;-72
2022/03/17 02:38:40;;;;;;;13.88;12.38;;;13.10;99.90;;;;;;5044689;28;20256;-72
2022/03/17 02:41:08;;;;;;;13.98;12.57;;;13.10;99.90;;;;;;5052856;28;20256;-72
2022/03/17 02:43:34;;;;;;;15.68;13.55;;;13.10;99.90;;;;;;5050928;28;20186;-71
2022/03/17 02:45:59;;;;;;;15.98;14.00;;;13.10;99.90;;;;;;5052510;28;20203;-72
2022/03/17 02:48:27;;;;;;;14.93;13.40;;;13.10;99.90;;;;;;5069178;28;20180;-73
2022/03/17 02:50:53;;;;;;;16.10;13.38;;;13.10;99.90;;;;;;5064007;28;20280;-71
2022/03/17 02:53:21;;;;;;;14.65;13.07;;;13.10;99.90;;;;;;5046597;28;20280;-70
2022/03/17 02:55:46;;;;;;;14.45;12.50;;;13.10;99.90;;;;;;5054949;28;20176;-73
2022/03/17 02:58:13;;;;;;;14.35;12.85;;;13.10;99.90;;;;;;5056144;28;20181;-73
2022/03/17 03:00:41;;;;;;;15.30;13.38;;;13.10;99.90;;;;;;5049389;28;20177;-73
2022/03/17 03:03:06;;;;;;;15.48;13.48;;;13.10;99.90;;;;;;5046505;28;20197;-73
2022/03/17 03:05:32;;;;;;;14.98;13.38;;;13.10;99.90;;;;;;5054003;28;20185;-73
2022/03/17 03:07:57;;;;;;;14.65;13.15;;;13.10;99.90;;;;;;5047868;28;20204;-73
2022/03/17 03:10:25;;;;;;;15.27;13.68;;;13.10;99.90;;;;;;5039631;28;20257;-73
2022/03/17 03:12:51;;;;;;;14.73;13.05;;;13.10;99.90;;;;;;5067657;28;20225;-73
2022/03/17 03:15:17;;;;;;;16.08;14.38;;;13.10;99.90;;;;;;5041941;28;20256;-72
2022/03/17 03:17:42;;;;;;;16.00;14.27;;;13.10;99.90;;;;;;5054500;28;20193;-72
2022/03/17 03:20:08;;;;;;;15.48;13.85;;;13.20;99.90;;;;;;5047316;28;20169;-73
2022/03/17 03:22:39;;;;;;;15.45;13.85;;;13.20;99.90;;;;;;5044510;28;20177;-72
2022/03/17 03:25:10;;;;;;;15.48;13.55;;;13.10;99.90;;;;;;5051813;28;20274;-72
2022/03/17 03:27:44;;;;;;;15.93;13.63;;;13.20;99.90;;;;;;5053511;28;20173;-73
2022/03/17 03:30:14;;;;;;;15.13;13.52;;;13.20;99.90;;;;;;5062985;28;20169;-72
2022/03/17 03:32:44;;;;;;;15.88;13.90;;;13.20;99.90;;;;;;5070284;28;20204;-72
2022/03/17 03:37:56;;;;;;;15.27;13.68;;;13.20;99.90;;;;;;5049447;28;20268;-72
2022/03/17 03:40:22;;;;;;;15.95;14.02;;;13.20;99.90;;;;;;5053388;28;20283;-71
2022/03/17 03:42:47;;;;;;;16.23;14.25;;;13.20;99.90;;;;;;5045441;28;20216;-72
2022/03/17 03:45:13;;;;;;;17.27;15.48;;;13.20;99.90;;;;;;5067619;28;20180;-72
2022/03/17 03:47:39;;;;;;;18.73;15.27;;;13.20;99.90;;;;;;5054869;28;20184;-71
2022/03/17 03:50:10;;;;;;;15.35;13.68;;;13.10;99.90;;;;;;5067043;28;20181;-73
2022/03/17 03:52:38;;;;;;;16.50;14.30;;;13.10;99.90;;;;;;5053202;28;20288;-70
2022/03/17 03:55:04;;;;;;;15.55;13.90;;;13.20;99.90;;;;;;5053440;28;20188;-73
2022/03/17 03:57:29;;;;;;;17.02;14.57;;;13.10;99.90;;;;;;5053936;28;20204;-73
2022/03/17 03:59:55;;;;;;;16.10;14.40;;;13.10;99.90;;;;;;5057840;28;20197;-74
2022/03/17 04:02:23;;;;;;;16.65;14.93;;;13.10;99.90;;;;;;5053035;28;20230;-73
2022/03/17 04:04:49;;;;;;;15.55;13.80;;;13.10;99.90;;;;;;5056947;28;20173;-72
2022/03/17 04:07:17;;;;;;;16.42;14.65;;;13.10;99.90;;;;;;5057653;28;20177;-73
2022/03/17 04:09:43;;;;;;;16.52;14.45;;;13.10;99.90;;;;;;5055029;28;20177;-72
2022/03/17 04:12:11;;;;;;;15.45;13.85;;;13.10;99.90;;;;;;5051444;28;20190;-73
2022/03/17 04:14:40;;;;;;;15.23;13.63;;;13.10;99.90;;;;;;5059984;28;20207;-72
2022/03/17 04:17:06;;;;;;;16.13;14.27;;;13.10;99.90;;;;;;5075927;28;20178;-73
2022/03/17 04:19:32;;;;;;;16.52;14.77;;;13.10;99.90;;;;;;5058402;28;20184;-71
2022/03/17 04:21:57;;;;;;;16.95;14.43;;;13.00;99.90;;;;;;5046890;28;20229;-73
2022/03/17 04:24:26;;;;;;;16.38;14.68;;;13.00;99.90;;;;;;5051570;28;20276;-73
2022/03/17 04:26:52;;;;;;;17.42;15.07;;;13.00;99.90;;;;;;5049149;28;20504;-72
2022/03/17 04:29:18;;;;;;;18.98;14.00;;;13.00;99.90;;;;;;5066661;28;20283;-72
2022/03/17 04:31:44;;;;;;;17.10;14.43;;;12.90;99.90;;;;;;5058548;28;20292;-73
2022/03/17 04:34:10;;;;;;;16.20;14.10;;;13.00;99.90;;;;;;5038007;28;20205;-70
2022/03/17 04:36:36;;;;;;;17.13;15.13;;;13.00;99.90;;;;;;5056300;28;20197;-73
2022/03/17 04:39:10;;;;;;;17.05;15.25;;;12.90;99.90;;;;;;5049957;28;20177;-73
2022/03/17 04:41:36;;;;;;;16.67;14.77;;;13.00;99.90;;;;;;5057922;28;20169;-73
2022/03/17 04:44:01;;;;;;;17.20;15.30;;;12.90;99.90;;;;;;5058624;28;20198;-73
2022/03/17 04:46:27;;;;;;;16.63;14.63;;;12.90;99.90;;;;;;5042793;28;20200;-73
2022/03/17 04:48:57;;;;;;;16.05;14.35;;;12.90;99.90;;;;;;5057188;28;20177;-73
2022/03/17 04:51:25;;;;;;;18.02;15.55;;;12.90;99.90;;;;;;5056211;28;20209;-73
2022/03/17 04:53:55;;;;;;;18.52;15.80;;;12.90;99.90;;;;;;5051665;28;20170;-72
2022/03/17 04:56:23;;;;;;;16.73;14.77;;;12.90;99.90;;;;;;5057301;28;20165;-72
2022/03/17 04:58:52;;;;;;;18.13;14.63;;;12.80;99.90;;;;;;5055265;28;20189;-73
2022/03/17 05:01:23;;;;;;;16.77;14.45;;;12.90;99.90;;;;;;5043485;28;20181;-72
2022/03/17 05:03:53;;;;;;;16.45;14.55;;;12.90;99.90;;;;;;5054697;28;20211;-72
2022/03/17 05:06:22;;;;;;;19.33;16.25;;;12.90;99.90;;;;;;5053416;28;20177;-72
2022/03/17 05:08:48;;;;;;;18.48;16.02;;;12.90;99.90;;;;;;5055615;28;20571;-72
2022/03/17 05:11:14;;;;;;;17.13;14.75;;;12.90;99.90;;;;;;5049293;28;20284;-73
2022/03/17 05:13:39;;;;;;;17.15;14.50;;;12.90;99.90;;;;;;5073687;28;20185;-73
2022/03/17 05:16:06;;;;;;;15.63;13.88;;;12.90;99.90;;;;;;5048824;28;20320;-71
2022/03/17 05:18:35;;;;;;;16.70;14.43;;;12.90;99.90;;;;;;5039516;28;20208;-72
2022/03/17 05:21:01;;;;;;;16.27;14.35;;;12.90;99.90;;;;;;5046930;28;20265;-71
2022/03/17 05:23:27;;;;;;;15.70;14.02;;;12.90;99.90;;;;;;5044594;28;20236;-72
2022/03/17 05:25:56;;;;;;;16.48;14.68;;;12.90;99.90;;;;;;5055149;28;20205;-73
2022/03/17 05:28:27;;;;;;;17.05;14.98;;;12.80;99.90;;;;;;5045025;28;20244;-70
2022/03/17 05:30:55;;;;;;;17.58;14.32;;;12.80;99.90;;;;;;5068406;28;20347;-69
2022/03/17 05:33:23;;;;;;;18.45;14.65;;;12.80;99.90;;;;;;5040875;28;20212;-72
2022/03/17 05:35:49;;;;;;;16.42;14.57;;;12.80;99.90;;;;;;5038941;28;20240;-73
2022/03/17 05:38:17;;;;;;;17.08;14.90;;;12.70;99.90;;;;;;5049550;28;20169;-71
2022/03/17 05:40:45;;;;;;;17.77;15.75;;;12.80;99.90;;;;;;5049302;28;20181;-72
2022/03/17 05:43:13;;;;;;;19.17;15.63;;;12.70;99.90;;;;;;5056016;28;20184;-73
2022/03/17 05:45:41;;;;;;;17.90;15.73;;;12.70;99.90;;;;;;5052441;28;20202;-73
2022/03/17 05:48:09;;;;;;;17.92;15.77;;;12.70;99.90;;;;;;5051336;28;20189;-73
2022/03/17 05:50:38;;;;;;;17.85;15.52;;;12.60;99.90;;;;;;5065410;28;20231;-74
2022/03/17 05:53:05;;;;;;;18.35;15.02;;;12.60;99.90;;;;;;5036110;28;20224;-73
2022/03/17 05:55:32;;;;;;;17.88;14.60;;;12.60;99.90;;;;;;5054993;28;20173;-71
2022/03/17 05:57:58;;;;;;;18.92;15.55;;;12.60;99.90;;;;;;5049921;28;20182;-74
2022/03/17 06:00:28;;;;;;;16.48;14.48;;;12.50;99.90;;;;;;5049748;28;20194;-73
2022/03/17 06:02:55;;;;;;;16.65;14.82;;;12.50;99.90;;;;;;5046775;28;20173;-74
2022/03/17 06:05:21;;;;;;;16.27;14.50;;;12.50;99.90;;;;;;5055259;28;20288;-73
2022/03/17 06:07:51;;;;;;;19.42;14.68;;;12.50;99.90;;;;;;5052519;28;20288;-72
2022/03/17 06:10:21;;;;;;;17.60;14.98;;;12.50;99.90;;;;;;5054648;28;20277;-71
2022/03/17 06:12:51;;;;;;;19.83;16.15;;;12.50;99.90;;;;;;5048065;28;20220;-71
2022/03/17 06:15:18;;;;;;;18.70;16.40;;;12.40;99.90;;;;;;5055638;28;20180;-71
2022/03/17 06:17:49;;;;;;;18.98;16.17;;;12.40;99.90;;;;;;5043861;28;20170;-69
2022/03/17 06:20:21;;;;;;;16.80;14.13;;;12.40;99.90;;;;;;5038289;28;20198;-72
2022/03/17 06:22:51;;;;;;;15.27;12.95;;;12.30;99.90;;;;;;5048529;28;20181;-72
2022/03/17 06:25:19;;;;;;;13.85;11.20;;;12.30;99.90;;;;;;5053100;28;20186;-74
2022/03/17 06:27:46;;;;;;;14.27;10.95;;;12.20;99.90;;;;;;5044420;28;20201;-73
2022/03/17 06:30:18;;;;;;;11.68;9.77;;;12.20;99.90;;;;;;5049707;28;20181;-73
2022/03/17 06:32:44;;;;;;;11.35;8.88;;;12.10;99.90;;;;;;5053929;28;20305;-73
2022/03/17 06:35:18;;;;;;;10.55;8.75;;;12.10;99.90;;;;;;5054648;28;20186;-73
2022/03/17 06:37:45;;;;;;;10.77;8.07;;;12.10;99.90;;;;;;5056770;28;20249;-73
2022/03/17 06:40:15;;;;;;;8.10;7.05;;;12.00;99.90;;;;;;5058196;28;20208;-73
2022/03/17 06:42:41;;;;;;;9.27;7.93;;;12.00;99.90;;;;;;5066953;28;20188;-71
2022/03/17 06:45:07;;;;;;;9.18;7.97;;;12.00;99.90;;;;;;5052694;28;20181;-72
2022/03/17 06:47:33;;;;;;;9.15;8.15;;;12.00;99.90;;;;;;5050250;28;20205;-72
2022/03/17 06:49:58;;;;;;;10.80;9.13;;;11.90;99.90;;;;;;5050420;28;20253;-70
2022/03/17 06:52:26;;;;;;;11.73;9.45;;;11.90;99.90;;;;;;5053155;28;20259;-70
2022/03/17 06:54:54;;;;;;;12.50;11.07;;;11.90;99.90;;;;;;5049041;28;20189;-73
2022/03/17 06:57:23;;;;;;;13.90;12.40;;;11.90;99.90;;;;;;5046087;28;20178;-72
2022/03/17 06:59:50;;;;;;;12.85;11.50;;;11.80;99.90;;;;;;5037847;28;20210;-77
2022/03/17 07:02:18;;;;;;;12.27;10.98;;;11.70;99.90;;;;;;5051108;28;20211;-73
2022/03/17 07:04:45;;;;;;;13.37;11.60;;;11.70;99.90;;;;;;5045466;28;20177;-73
2022/03/17 07:07:11;;;;;;;14.40;11.57;;;11.60;99.90;;;;;;5046082;28;20185;-75
2022/03/17 07:09:37;;;;;;;15.27;12.30;;;11.50;99.90;;;;;;5063340;28;20789;-79
2022/03/17 07:12:06;;;;;;;13.50;11.53;;;11.50;99.90;;;;;;5052094;28;20582;-80
2022/03/17 07:14:32;;;;;;;12.57;10.83;;;11.40;99.90;;;;;;5047109;28;20166;-79
2022/03/17 07:17:02;;;;;;;14.73;11.70;;;11.40;99.90;;;;;;5041234;28;20176;-74
2022/03/17 07:19:30;;;;;;;24.67;18.13;;;11.30;99.90;;;;;;5045600;28;20177;-79
2022/03/17 07:22:00;;;;;;;22.53;18.07;;;11.30;99.90;;;;;;5050046;28;20385;-71
2022/03/17 07:24:26;;;;;;;24.80;18.87;;;11.20;99.90;;;;;;5047292;28;20205;-78
2022/03/17 07:26:54;;;;;;;24.77;19.33;;;11.10;99.90;;;;;;5047161;28;20280;-75
2022/03/17 07:29:22;;;;;;;24.17;18.07;;;11.00;99.90;;;;;;5058087;28;20187;-74
2022/03/17 07:31:54;;;;;;;26.57;20.53;;;11.00;99.90;;;;;;5049594;28;20224;-77
2022/03/17 07:34:20;;;;;;;21.90;17.30;;;10.90;99.90;;;;;;5043494;28;20182;-70
2022/03/17 07:36:46;;;;;;;27.60;20.13;;;10.80;99.90;;;;;;5047840;28;20176;-70
2022/03/17 07:39:14;;;;;;;24.87;18.13;;;10.70;99.90;;;;;;5040142;28;20231;-74
2022/03/17 07:41:39;;;;;;;20.10;16.03;;;10.70;99.90;;;;;;5041610;28;20203;-69
2022/03/17 07:44:05;;;;;;;19.80;15.60;;;10.60;99.90;;;;;;5050112;28;20303;-75
2022/03/17 07:46:36;;;;;;;21.80;15.80;;;10.60;99.90;;;;;;5051385;28;20178;-73
2022/03/17 07:49:04;;;;;;;19.43;14.13;;;10.50;99.90;;;;;;5050663;28;20181;-73
2022/03/17 07:51:30;;;;;;;18.30;12.83;;;10.50;99.90;;;;;;5051322;28;20212;-72
2022/03/17 07:53:58;;;;;;;16.50;12.20;;;10.50;99.90;;;;;;5044480;28;20270;-75
2022/03/17 07:56:24;;;;;;;16.87;12.07;;;10.50;99.90;;;;;;5048806;28;20201;-74
2022/03/17 07:58:50;;;;;;;14.10;12.07;;;10.50;99.90;;;;;;5053406;28;20200;-76
2022/03/17 08:01:17;;;;;;;14.80;11.60;;;10.40;99.90;;;;;;5054248;28;20177;-73
2022/03/17 08:03:45;;;;;;;14.43;11.47;;;10.40;99.90;;;;;;5050264;28;20200;-72
2022/03/17 08:06:13;;;;;;;13.47;10.63;;;10.40;99.90;;;;;;5055547;28;20185;-71
2022/03/17 08:08:41;;;;;;;12.13;10.30;;;10.50;99.90;;;;;;5050876;28;20243;-75
2022/03/17 08:11:07;;;;;;;11.37;9.60;;;10.50;99.90;;;;;;5079308;28;20173;-72
2022/03/17 08:13:33;;;;;;;11.33;9.63;;;10.50;99.90;;;;;;5057750;28;20254;-73
2022/03/17 08:16:01;;;;;;;12.87;9.50;;;10.50;99.90;;;;;;5052344;28;20253;-73
2022/03/17 08:18:34;;;;;;;10.77;8.93;;;10.50;99.90;;;;;;5052815;28;20280;-73
2022/03/17 08:21:08;;;;;;;9.67;7.73;;;10.50;99.90;;;;;;5048643;28;20208;-73
2022/03/17 08:23:34;;;;;;;9.67;7.17;;;10.40;99.90;;;;;;5043845;28;20211;-72
2022/03/17 08:26:01;;;;;;;10.57;7.60;;;10.50;99.90;;;;;;5042744;28;20177;-73
2022/03/17 08:28:27;;;;;;;8.20;6.97;;;10.50;99.90;;;;;;5049654;28;20205;-70
2022/03/17 08:30:53;;;;;;;10.97;7.97;;;10.50;99.90;;;;;;5047551;28;20186;-68
2022/03/17 08:33:19;;;;;;;10.50;7.00;;;10.50;99.90;;;;;;5048952;28;20229;-71
2022/03/17 08:35:47;;;;;;;9.33;6.80;;;10.40;99.90;;;;;;5056341;28;20204;-70
2022/03/17 08:38:13;;;;;;;8.33;6.57;;;10.40;99.90;;;;;;5054645;28;20415;-71
2022/03/17 08:40:42;;;;;;;8.17;6.60;;;10.40;99.90;;;;;;5050093;28;20370;-69
2022/03/17 08:43:13;;;;;;;9.53;6.87;;;10.50;99.90;;;;;;5050588;28;20225;-72
2022/03/17 08:51:13;;;;;;;6.30;5.37;;;10.50;99.90;;;;;;5040960;28;20184;-73
2022/03/17 08:53:43;;;;;;;5.87;4.77;;;10.50;99.90;;;;;;5040862;28;20208;-72
2022/03/17 08:56:13;;;;;;;7.37;5.60;;;10.60;99.90;;;;;;5056403;28;20169;-69
2022/03/17 08:58:39;;;;;;;8.07;5.47;;;10.60;99.90;;;;;;5045507;28;20190;-70
2022/03/17 09:01:07;;;;;;;6.70;4.80;;;10.70;99.90;;;;;;5070783;28;20217;-83
2022/03/17 09:03:33;;;;;;;5.37;4.10;;;10.70;99.90;;;;;;5060714;28;20193;-81
2022/03/17 09:06:02;;;;;;;4.63;3.83;;;10.80;99.90;;;;;;5039860;28;20192;-81
2022/03/17 09:08:28;;;;;;;4.18;3.58;;;10.80;99.90;;;;;;5045427;28;20181;-75
2022/03/17 09:10:55;;;;;;;7.97;4.00;;;10.80;99.90;;;;;;5056321;28;20188;-81
2022/03/17 09:13:28;;;;;;;4.83;4.33;;;10.90;99.90;;;;;;5065032;28;20293;-72
2022/03/17 09:15:55;;;;;;;5.93;4.40;;;10.90;99.90;;;;;;5051834;28;20184;-76
2022/03/17 09:18:24;;;;;;;5.33;4.13;;;10.90;99.90;;;;;;5055108;28;20177;-84
2022/03/17 09:20:50;;;;;;;4.33;3.73;;;11.00;99.90;;;;;;5046665;28;20391;-80
2022/03/17 09:23:17;;;;;;;4.63;4.10;;;10.90;99.90;;;;;;5057702;28;20232;-81
2022/03/17 09:25:43;;;;;;;5.37;4.87;;;10.90;99.90;;;;;;5053032;28;20234;-79
2022/03/17 09:28:08;;;;;;;4.43;4.03;;;10.90;99.90;;;;;;5043007;28;20200;-77
2022/03/17 09:30:34;;;;;;;4.57;4.13;;;11.00;99.90;;;;;;5052939;28;20267;-75
2022/03/17 09:33:03;;;;;;;6.88;4.85;;;10.90;99.90;;;;;;5053008;28;20212;-81
2022/03/17 09:35:31;;;;;;;6.23;4.60;;;10.90;99.90;;;;;;5042311;28;20178;-74
2022/03/17 09:37:57;;;;;;;6.68;4.70;;;10.90;99.90;;;;;;5055414;28;20181;-81
2022/03/17 09:40:23;;;;;;;5.63;4.17;;;10.90;99.90;;;;;;5055684;28;20197;-77
2022/03/17 09:42:49;;;;;;;5.23;4.73;;;10.90;99.90;;;;;;5054799;28;20184;-80
2022/03/17 09:45:17;;;;;;;5.33;4.83;;;10.90;99.90;;;;;;5049124;28;20184;-78
2022/03/17 09:47:44;;;;;;;5.47;4.70;;;10.90;99.90;;;;;;5053155;28;20332;-80
2022/03/17 09:50:16;;;;;;;6.57;4.80;;;10.90;99.90;;;;;;5050689;28;20177;-84
2022/03/17 09:52:44;;;;;;;5.17;4.63;;;10.90;99.90;;;;;;5053321;28;20438;-84
2022/03/17 09:55:10;;;;;;;5.23;4.73;;;10.90;99.90;;;;;;5041842;28;20183;-85
2022/03/17 09:57:39;;;;;;;6.13;5.27;;;11.00;99.90;;;;;;5044447;28;20182;-74
2022/03/17 10:00:11;;;;;;;6.13;5.40;;;11.00;99.90;;;;;;5049354;28;20214;-79
2022/03/17 10:02:39;;;;;;;6.70;5.23;;;11.00;99.90;;;;;;5051858;28;20177;-80
2022/03/17 10:05:06;;;;;;;7.73;5.40;;;11.00;99.90;;;;;;5048296;28;20209;-78
2022/03/17 10:07:35;;;;;;;7.28;6.15;;;11.00;99.90;;;;;;5050819;28;20242;-77
2022/03/17 10:10:01;;;;;;;9.23;7.30;;;11.00;99.90;;;;;;5054692;28;20243;-77
2022/03/17 10:12:30;;;;;;;8.98;7.13;;;11.00;99.90;;;;;;5053291;28;20227;-73
2022/03/17 10:14:57;;;;;;;8.90;7.47;;;11.00;99.90;;;;;;5052178;28;20176;-75
2022/03/17 10:17:35;;;;;;;7.00;6.30;;;11.00;99.90;;;;;;5049817;28;20174;-76
2022/03/17 10:20:31;;;;;;;7.37;6.63;;;11.00;99.90;;;;;;5051158;28;20198;-76
2022/03/17 10:23:02;;;;;;;8.90;6.78;;;11.00;99.90;;;;;;5024143;28;20189;-77
2022/03/17 10:25:32;;;;;;;12.18;9.90;;;11.00;99.90;;;;;;5046320;28;20279;-82
2022/03/17 10:28:02;;;;;;;10.30;9.30;;;11.10;99.90;;;;;;5045521;28;20186;-72
2022/03/17 10:30:35;;;;;;;9.65;8.65;;;11.10;99.90;;;;;;5070545;28;20220;-81
2022/03/17 10:33:09;;;;;;;10.07;8.98;;;11.10;99.90;;;;;;5051027;28;20225;-81
2022/03/17 10:35:36;;;;;;;11.02;9.70;;;11.10;99.90;;;;;;5070132;28;20256;-81
2022/03/17 10:38:16;;;;;;;12.13;9.10;;;11.10;99.90;;;;;;5054388;28;20209;-82
2022/03/17 10:40:44;;;;;;;11.57;8.88;;;11.10;99.90;;;;;;5045839;28;20170;-75
2022/03/17 10:43:17;;;;;;;8.90;8.00;;;11.20;99.90;;;;;;5051676;28;20270;-79
2022/03/17 10:45:46;;;;;;;9.13;7.43;;;11.20;99.90;;;;;;5035554;28;20190;-75
2022/03/17 10:48:12;;;;;;;8.35;6.70;;;11.20;99.90;;;;;;5042242;28;20178;-79
2022/03/17 10:50:40;;;;;;;10.23;8.57;;;11.20;99.90;;;;;;5050270;28;20185;-79
2022/03/17 10:53:06;;;;;;;8.40;6.97;;;11.10;99.90;;;;;;5050905;28;20208;-80
2022/03/17 10:55:33;;;;;;;11.40;7.93;;;11.10;99.90;;;;;;5053014;28;20173;-78
2022/03/17 10:58:22;;;;;;;10.17;9.07;;;11.10;99.90;;;;;;5042691;28;20221;-82
2022/03/17 11:00:56;;;;;;;13.17;10.00;;;11.10;99.90;;;;;;5053754;28;20174;-80
2022/03/17 11:03:23;;;;;;;10.93;9.70;;;11.00;99.90;;;;;;5063420;28;20204;-81
2022/03/17 11:05:53;;;;;;;11.65;9.43;;;11.00;99.90;;;;;;5051536;28;20181;-81
2022/03/17 11:08:20;;;;;;;10.77;8.93;;;11.00;99.90;;;;;;5042983;28;20171;-78
2022/03/17 11:10:49;;;;;;;11.37;8.90;;;11.00;99.90;;;;;;5053417;28;20280;-81
2022/03/17 11:13:14;;;;;;;10.70;9.60;;;11.00;99.90;;;;;;5041537;28;20197;-71
2022/03/17 11:16:08;;;;;;;10.50;9.50;;;11.00;99.90;;;;;;5048118;28;20184;-82
2022/03/17 11:18:38;;;;;;;11.03;8.73;;;11.00;99.90;;;;;;5051328;28;20343;-81
2022/03/17 11:21:27;;;;;;;10.87;7.50;;;11.00;99.90;;;;;;5050938;28;20215;-79
2022/03/17 11:24:04;;;;;;;7.22;6.53;;;10.90;99.90;;;;;;5051394;28;20201;-81
2022/03/17 11:26:44;;;;;;;8.37;6.17;;;10.90;99.90;;;;;;5038514;28;20166;-77
2022/03/17 11:29:21;;;;;;;8.13;6.07;;;11.00;99.90;;;;;;5053745;28;20182;-79
2022/03/17 11:32:09;;;;;;;6.13;4.70;;;11.00;99.90;;;;;;5073845;28;20201;-78
2022/03/17 11:34:46;;;;;;;6.10;4.70;;;11.00;99.90;;;;;;5058701;28;20179;-82
2022/03/17 11:37:24;;;;;;;5.87;4.70;;;11.00;99.90;;;;;;5041779;28;20193;-84
2022/03/17 11:40:09;;;;;;;6.10;4.70;;;11.00;99.90;;;;;;5044010;28;20236;-79
2022/03/17 11:42:41;;;;;;;6.32;4.95;;;11.00;99.90;;;;;;5068472;28;20235;-84
2022/03/17 11:45:15;;;;;;;5.78;4.60;;;11.10;99.90;;;;;;5073204;28;20241;-78
2022/03/17 11:47:53;;;;;;;5.05;4.28;;;11.00;99.90;;;;;;5070048;28;20179;-81
2022/03/17 11:50:27;;;;;;;7.95;4.93;;;11.10;99.90;;;;;;5053527;28;20167;-82
2022/03/17 11:52:57;;;;;;;7.35;4.10;;;11.10;99.90;;;;;;5053338;28;20203;-83
2022/03/17 11:55:41;;;;;;;4.03;3.27;;;11.20;99.90;;;;;;5053426;28;20281;-85
2022/03/17 11:58:23;;;;;;;4.20;2.80;;;11.20;99.90;;;;;;5052945;28;20180;-69
2022/03/17 12:01:01;;;;;;;5.80;2.80;;;11.20;99.90;;;;;;5038281;28;20189;-78
2022/03/17 12:03:29;;;;;;;3.33;2.20;;;11.20;99.90;;;;;;5049842;28;20269;-83
2022/03/17 12:06:04;;;;;;;3.85;1.95;;;11.30;99.90;;;;;;5033373;28;20178;-80
2022/03/17 12:09:01;;;;;;;2.75;1.70;;;11.30;99.90;;;;;;5035940;28;20204;-82
2022/03/17 12:11:31;;;;;;;2.67;1.70;;;11.30;99.90;;;;;;5047057;28;20197;-83
2022/03/17 12:14:17;;;;;;;4.75;2.00;;;11.40;99.90;;;;;;5037075;28;20216;-81
2022/03/17 12:16:51;;;;;;;3.20;1.60;;;11.50;99.90;;;;;;5037386;28;20198;-83
2022/03/17 12:19:30;;;;;;;3.90;1.40;;;11.60;99.90;;;;;;5072217;28;20349;-80
2022/03/17 12:21:58;;;;;;;3.97;1.60;;;11.60;99.90;;;;;;5061347;28;20192;-83
2022/03/17 12:24:47;;;;;;;2.92;1.60;;;11.70;99.90;;;;;;5037392;28;20193;-80
2022/03/17 12:27:29;;;;;;;4.30;2.40;;;11.70;99.90;;;;;;5044309;28;20173;-78
2022/03/17 12:30:05;;;;;;;4.28;2.38;;;11.70;99.90;;;;;;5057134;28;20219;-86
2022/03/17 12:32:44;;;;;;;4.25;2.40;;;11.80;99.90;;;;;;5057094;28;20531;-78
2022/03/17 12:35:10;;;;;;;2.78;1.85;;;11.80;99.90;;;;;;5064593;28;20176;-81
2022/03/17 12:37:39;;;;;;;4.53;1.67;;;11.80;99.90;;;;;;5054598;28;20208;-82
2022/03/17 12:40:11;;;;;;;3.63;1.98;;;11.80;99.90;;;;;;5073130;28;20170;-79
2022/03/17 12:42:41;;;;;;;3.35;1.55;;;11.80;99.90;;;;;;5057058;28;20181;-73
2022/03/17 12:45:15;;;;;;;3.33;1.83;;;11.80;99.90;;;;;;5046979;28;20188;-85
2022/03/17 12:47:58;;;;;;;4.82;1.92;;;11.90;99.90;;;;;;5057551;28;20200;-78
2022/03/17 12:50:28;;;;;;;4.00;2.10;;;11.90;99.90;;;;;;5056340;28;20209;-77
2022/03/17 12:52:54;;;;;;;6.10;2.42;;;11.90;99.90;;;;;;5057055;28;20201;-81
2022/03/17 12:55:21;;;;;;;3.92;2.60;;;12.00;99.90;;;;;;5057381;28;20280;-76
2022/03/17 12:57:52;;;;;;;2.95;2.55;;;12.00;99.90;;;;;;5054438;28;20208;-84